sensor_id;sensor_type;location;lat;lon;timestamp;pressure;altitude;pressure_sealevel;temperature;humidity
12358;BME280;6243;51.244;6.774;2023-05-09T00:02:02;152264.59;;;19.01;100.00
12358;BME280;6243;51.244;6.774;2023-05-09T00:04:28;152320.88;;;19.24;100.00
12358;BME280;6243;51.244;6.774;2023-05-09T00:06:54;152365.75;;;19.41;100.00
12358;BME280;6243;51.244;6.774;2023-05-09T00:09:19;152382.38;;;19.48;100.00
12358;BME280;6243;51.244;6.774;2023-05-09T00:11:46;152246.66;;;18.94;100.00
12358;BME280;6243;51.244;6.774;2023-05-09T00:14:12;152236.44;;;18.90;100.00
12358;BME280;6243;51.244;6.774;2023-05-09T00:16:37;152253.06;;;18.97;100.00
12358;BME280;6243;51.244;6.774;2023-05-09T00:19:03;152235.16;;;18.90;100.00
12358;BME280;6243;51.244;6.774;2023-05-09T00:21:28;152282.50;;;19.08;100.00
12358;BME280;6243;51.244;6.774;2023-05-09T00:23:54;152269.69;;;19.03;100.00
12358;BME280;6243;51.244;6.774;2023-05-09T00:26:19;152282.50;;;19.08;100.00
12358;BME280;6243;51.244;6.774;2023-05-09T00:28:46;152228.75;;;18.87;100.00
12358;BME280;6243;51.244;6.774;2023-05-09T00:31:12;152256.88;;;18.98;100.00
12358;BME280;6243;51.244;6.774;2023-05-09T00:33:37;152203.19;;;18.77;100.00
12358;BME280;6243;51.244;6.774;2023-05-09T00:36:03;152241.56;;;18.92;100.00
12358;BME280;6243;51.244;6.774;2023-05-09T00:38:29;152167.38;;;18.63;100.00
12358;BME280;6243;51.244;6.774;2023-05-09T00:40:54;152153.28;;;18.58;100.00
12358;BME280;6243;51.244;6.774;2023-05-09T00:43:20;152207.00;;;18.79;100.00
12358;BME280;6243;51.244;6.774;2023-05-09T00:45:47;152272.28;;;19.04;100.00
12358;BME280;6243;51.244;6.774;2023-05-09T00:48:13;152259.47;;;18.99;100.00
12358;BME280;6243;51.244;6.774;2023-05-09T00:50:39;152310.66;;;19.20;100.00
12358;BME280;6243;51.244;6.774;2023-05-09T00:53:05;152267.16;;;19.02;100.00
12358;BME280;6243;51.244;6.774;2023-05-09T00:55:30;152283.78;;;19.09;100.00
12358;BME280;6243;51.244;6.774;2023-05-09T00:57:56;152205.72;;;18.78;100.00
12358;BME280;6243;51.244;6.774;2023-05-09T01:00:21;152300.41;;;19.16;100.00
12358;BME280;6243;51.244;6.774;2023-05-09T01:02:52;152323.44;;;19.25;100.00
12358;BME280;6243;51.244;6.774;2023-05-09T01:05:18;152383.69;;;19.48;100.00
12358;BME280;6243;51.244;6.774;2023-05-09T01:07:49;152315.75;;;19.22;100.00
12358;BME280;6243;51.244;6.774;2023-05-09T01:10:23;152367.00;;;19.42;100.00
12358;BME280;6243;51.244;6.774;2023-05-09T01:12:54;152329.84;;;19.27;100.00
12358;BME280;6243;51.244;6.774;2023-05-09T01:15:25;152326.03;;;19.26;100.00
12358;BME280;6243;51.244;6.774;2023-05-09T01:17:59;152210.84;;;18.80;100.00
12358;BME280;6243;51.244;6.774;2023-05-09T01:20:32;152240.25;;;18.92;100.00
12358;BME280;6243;51.244;6.774;2023-05-09T01:23:10;152301.72;;;19.16;100.00
12358;BME280;6243;51.244;6.774;2023-05-09T01:25:53;152226.22;;;18.86;100.00
12358;BME280;6243;51.244;6.774;2023-05-09T01:28:33;152274.81;;;19.05;100.00
12358;BME280;6243;51.244;6.774;2023-05-09T01:31:02;152268.41;;;19.03;100.00
12358;BME280;6243;51.244;6.774;2023-05-09T01:33:30;152303.00;;;19.17;100.00
12358;BME280;6243;51.244;6.774;2023-05-09T01:36:02;152315.75;;;19.22;100.00
12358;BME280;6243;51.244;6.774;2023-05-09T01:38:30;152175.06;;;18.66;100.00
12358;BME280;6243;51.244;6.774;2023-05-09T01:40:57;152247.97;;;18.95;100.00
12358;BME280;6243;51.244;6.774;2023-05-09T01:43:24;152177.59;;;18.67;100.00
12358;BME280;6243;51.244;6.774;2023-05-09T01:45:52;152226.22;;;18.86;100.00
12358;BME280;6243;51.244;6.774;2023-05-09T01:48:20;152201.91;;;18.77;100.00
12358;BME280;6243;51.244;6.774;2023-05-09T01:50:46;152200.59;;;18.76;100.00
12358;BME280;6243;51.244;6.774;2023-05-09T01:53:13;152232.63;;;18.89;100.00
12358;BME280;6243;51.244;6.774;2023-05-09T01:55:39;152263.28;;;19.01;100.00
12358;BME280;6243;51.244;6.774;2023-05-09T01:58:05;152255.66;;;18.98;100.00
12358;BME280;6243;51.244;6.774;2023-05-09T02:00:32;152279.91;;;19.07;100.00
12358;BME280;6243;51.244;6.774;2023-05-09T02:02:58;152258.19;;;18.99;100.00
12358;BME280;6243;51.244;6.774;2023-05-09T02:05:27;152281.22;;;19.08;100.00
12358;BME280;6243;51.244;6.774;2023-05-09T02:07:54;152263.28;;;19.01;100.00
12358;BME280;6243;51.244;6.774;2023-05-09T02:10:20;152370.88;;;19.43;100.00
12358;BME280;6243;51.244;6.774;2023-05-09T02:12:46;152267.16;;;19.02;100.00
12358;BME280;6243;51.244;6.774;2023-05-09T02:15:12;152304.25;;;19.17;100.00
12358;BME280;6243;51.244;6.774;2023-05-09T02:17:37;152315.75;;;19.22;100.00
12358;BME280;6243;51.244;6.774;2023-05-09T02:20:04;152333.69;;;19.29;100.00
12358;BME280;6243;51.244;6.774;2023-05-09T02:22:31;152346.50;;;19.34;100.00
12358;BME280;6243;51.244;6.774;2023-05-09T02:24:56;152309.34;;;19.19;100.00
12358;BME280;6243;51.244;6.774;2023-05-09T02:27:22;152387.50;;;19.50;100.00
12358;BME280;6243;51.244;6.774;2023-05-09T02:29:50;152268.41;;;19.03;100.00
12358;BME280;6243;51.244;6.774;2023-05-09T02:32:21;152338.78;;;19.31;100.00
12358;BME280;6243;51.244;6.774;2023-05-09T02:34:47;152415.66;;;19.61;100.00
12358;BME280;6243;51.244;6.774;2023-05-09T02:37:14;152387.50;;;19.50;100.00
12358;BME280;6243;51.244;6.774;2023-05-09T02:39:42;152392.63;;;19.52;100.00
12358;BME280;6243;51.244;6.774;2023-05-09T02:42:09;152320.88;;;19.24;100.00
12358;BME280;6243;51.244;6.774;2023-05-09T02:44:35;152320.88;;;19.24;100.00
12358;BME280;6243;51.244;6.774;2023-05-09T02:47:01;152301.72;;;19.16;100.00
12358;BME280;6243;51.244;6.774;2023-05-09T02:49:27;152374.69;;;19.45;100.00
12358;BME280;6243;51.244;6.774;2023-05-09T02:51:53;152333.69;;;19.29;100.00
12358;BME280;6243;51.244;6.774;2023-05-09T02:54:18;152341.38;;;19.32;100.00
12358;BME280;6243;51.244;6.774;2023-05-09T02:56:45;152364.47;;;19.41;100.00
12358;BME280;6243;51.244;6.774;2023-05-09T02:59:11;152294.00;;;19.13;100.00
12358;BME280;6243;51.244;6.774;2023-05-09T03:01:36;152278.69;;;19.07;100.00
12358;BME280;6243;51.244;6.774;2023-05-09T03:04:02;152338.78;;;19.31;100.00
12358;BME280;6243;51.244;6.774;2023-05-09T03:06:27;152405.44;;;19.57;100.00
12358;BME280;6243;51.244;6.774;2023-05-09T03:08:53;152350.34;;;19.35;100.00
12358;BME280;6243;51.244;6.774;2023-05-09T03:11:18;152356.75;;;19.38;100.00
12358;BME280;6243;51.244;6.774;2023-05-09T03:13:45;152300.41;;;19.16;100.00
12358;BME280;6243;51.244;6.774;2023-05-09T03:16:12;152205.72;;;18.78;100.00
12358;BME280;6243;51.244;6.774;2023-05-09T03:18:38;152239.03;;;18.91;100.00
12358;BME280;6243;51.244;6.774;2023-05-09T03:21:03;152223.63;;;18.85;100.00
12358;BME280;6243;51.244;6.774;2023-05-09T03:23:29;152216.00;;;18.82;100.00
12358;BME280;6243;51.244;6.774;2023-05-09T03:25:54;152318.34;;;19.23;100.00
12358;BME280;6243;51.244;6.774;2023-05-09T03:28:20;152347.78;;;19.34;100.00
12358;BME280;6243;51.244;6.774;2023-05-09T03:30:47;152347.78;;;19.34;100.00
12358;BME280;6243;51.244;6.774;2023-05-09T03:33:12;152273.56;;;19.05;100.00
12358;BME280;6243;51.244;6.774;2023-05-09T03:35:38;152295.31;;;19.13;100.00
12358;BME280;6243;51.244;6.774;2023-05-09T03:38:03;152378.50;;;19.46;100.00
12358;BME280;6243;51.244;6.774;2023-05-09T03:40:29;152324.75;;;19.25;100.00
12358;BME280;6243;51.244;6.774;2023-05-09T03:42:54;152395.19;;;19.53;100.00
12358;BME280;6243;51.244;6.774;2023-05-09T03:45:20;152369.56;;;19.43;100.00
12358;BME280;6243;51.244;6.774;2023-05-09T03:47:47;152213.41;;;18.81;100.00
12358;BME280;6243;51.244;6.774;2023-05-09T03:50:12;152340.09;;;19.31;100.00
12358;BME280;6243;51.244;6.774;2023-05-09T03:52:38;152199.31;;;18.76;100.00
12358;BME280;6243;51.244;6.774;2023-05-09T03:55:04;152279.91;;;19.07;100.00
12358;BME280;6243;51.244;6.774;2023-05-09T03:57:29;152303.00;;;19.17;100.00
12358;BME280;6243;51.244;6.774;2023-05-09T03:59:55;152294.00;;;19.13;100.00
12358;BME280;6243;51.244;6.774;2023-05-09T04:02:21;152214.69;;;18.82;100.00
12358;BME280;6243;51.244;6.774;2023-05-09T04:04:48;152279.91;;;19.07;100.00
12358;BME280;6243;51.244;6.774;2023-05-09T04:07:14;152285.09;;;19.09;100.00
12358;BME280;6243;51.244;6.774;2023-05-09T04:09:40;152336.25;;;19.30;100.00
12358;BME280;6243;51.244;6.774;2023-05-09T04:12:06;152205.72;;;18.78;100.00
12358;BME280;6243;51.244;6.774;2023-05-09T04:14:31;152249.25;;;18.95;100.00
12358;BME280;6243;51.244;6.774;2023-05-09T04:16:57;152277.38;;;19.06;100.00
12358;BME280;6243;51.244;6.774;2023-05-09T04:19:23;152328.56;;;19.27;100.00
12358;BME280;6243;51.244;6.774;2023-05-09T04:21:49;152251.78;;;18.96;100.00
12358;BME280;6243;51.244;6.774;2023-05-09T04:24:15;152153.28;;;18.58;100.00
12358;BME280;6243;51.244;6.774;2023-05-09T04:26:40;152259.47;;;18.99;100.00
12358;BME280;6243;51.244;6.774;2023-05-09T04:29:06;152254.34;;;18.97;100.00
12358;BME280;6243;51.244;6.774;2023-05-09T04:31:31;152328.56;;;19.27;100.00
12358;BME280;6243;51.244;6.774;2023-05-09T04:33:57;152369.56;;;19.43;100.00
12358;BME280;6243;51.244;6.774;2023-05-09T04:36:23;152336.25;;;19.30;100.00
12358;BME280;6243;51.244;6.774;2023-05-09T04:38:50;152387.50;;;19.50;100.00
12358;BME280;6243;51.244;6.774;2023-05-09T04:41:15;152370.88;;;19.43;100.00
12358;BME280;6243;51.244;6.774;2023-05-09T04:43:41;152323.44;;;19.25;100.00
12358;BME280;6243;51.244;6.774;2023-05-09T04:46:06;152367.00;;;19.42;100.00
12358;BME280;6243;51.244;6.774;2023-05-09T04:48:32;152303.00;;;19.17;100.00
12358;BME280;6243;51.244;6.774;2023-05-09T04:50:58;152299.13;;;19.15;100.00
12358;BME280;6243;51.244;6.774;2023-05-09T04:53:24;152352.94;;;19.36;100.00
12358;BME280;6243;51.244;6.774;2023-05-09T04:55:50;152401.59;;;19.55;100.00
12358;BME280;6243;51.244;6.774;2023-05-09T04:58:16;152418.25;;;19.62;100.00
12358;BME280;6243;51.244;6.774;2023-05-09T05:00:41;152287.63;;;19.10;100.00
12358;BME280;6243;51.244;6.774;2023-05-09T05:03:07;152308.13;;;19.19;100.00
12358;BME280;6243;51.244;6.774;2023-05-09T05:05:32;152259.47;;;18.99;100.00
12358;BME280;6243;51.244;6.774;2023-05-09T05:07:58;152282.50;;;19.08;100.00
12358;BME280;6243;51.244;6.774;2023-05-09T05:10:24;152310.66;;;19.20;100.00
12358;BME280;6243;51.244;6.774;2023-05-09T05:12:50;152352.94;;;19.36;100.00
12358;BME280;6243;51.244;6.774;2023-05-09T05:15:17;152309.34;;;19.19;100.00
12358;BME280;6243;51.244;6.774;2023-05-09T05:17:42;152255.66;;;18.98;100.00
12358;BME280;6243;51.244;6.774;2023-05-09T05:20:08;152263.28;;;19.01;100.00
12358;BME280;6243;51.244;6.774;2023-05-09T05:22:34;152192.91;;;18.73;100.00
12358;BME280;6243;51.244;6.774;2023-05-09T05:24:59;152277.38;;;19.06;100.00
12358;BME280;6243;51.244;6.774;2023-05-09T05:27:24;152308.13;;;19.19;100.00
12358;BME280;6243;51.244;6.774;2023-05-09T05:29:51;152273.56;;;19.05;100.00
12358;BME280;6243;51.244;6.774;2023-05-09T05:32:17;152345.19;;;19.33;100.00
12358;BME280;6243;51.244;6.774;2023-05-09T05:34:42;152392.63;;;19.52;100.00
12358;BME280;6243;51.244;6.774;2023-05-09T05:37:08;152286.31;;;19.10;100.00
12358;BME280;6243;51.244;6.774;2023-05-09T05:39:33;152203.19;;;18.77;100.00
12358;BME280;6243;51.244;6.774;2023-05-09T05:41:59;152328.56;;;19.27;100.00
12358;BME280;6243;51.244;6.774;2023-05-09T05:44:24;152249.25;;;18.95;100.00
12358;BME280;6243;51.244;6.774;2023-05-09T05:46:51;152259.47;;;18.99;100.00
12358;BME280;6243;51.244;6.774;2023-05-09T05:49:17;152236.44;;;18.90;100.00
12358;BME280;6243;51.244;6.774;2023-05-09T05:51:42;152296.59;;;19.14;100.00
12358;BME280;6243;51.244;6.774;2023-05-09T05:54:08;152365.75;;;19.41;100.00
12358;BME280;6243;51.244;6.774;2023-05-09T05:56:33;152410.53;;;19.59;100.00
12358;BME280;6243;51.244;6.774;2023-05-09T05:58:59;152433.56;;;19.68;100.00
12358;BME280;6243;51.244;6.774;2023-05-09T06:01:24;152428.47;;;19.66;100.00
12358;BME280;6243;51.244;6.774;2023-05-09T06:03:51;152382.38;;;19.48;100.00
12358;BME280;6243;51.244;6.774;2023-05-09T06:06:17;152384.91;;;19.49;100.00
12358;BME280;6243;51.244;6.774;2023-05-09T06:08:42;152400.31;;;19.55;100.00
12358;BME280;6243;51.244;6.774;2023-05-09T06:11:08;152338.78;;;19.31;100.00
12358;BME280;6243;51.244;6.774;2023-05-09T06:13:33;152441.28;;;19.71;100.00
12358;BME280;6243;51.244;6.774;2023-05-09T06:15:59;152277.38;;;19.06;100.00
12358;BME280;6243;51.244;6.774;2023-05-09T06:18:24;152415.66;;;19.61;100.00
12358;BME280;6243;51.244;6.774;2023-05-09T06:20:51;152295.31;;;19.13;100.00
12358;BME280;6243;51.244;6.774;2023-05-09T06:23:17;152401.59;;;19.55;100.00
12358;BME280;6243;51.244;6.774;2023-05-09T06:25:42;152451.50;;;19.75;100.00
12358;BME280;6243;51.244;6.774;2023-05-09T06:28:08;152401.59;;;19.55;100.00
12358;BME280;6243;51.244;6.774;2023-05-09T06:30:33;152384.91;;;19.49;100.00
12358;BME280;6243;51.244;6.774;2023-05-09T06:32:59;152338.78;;;19.31;100.00
12358;BME280;6243;51.244;6.774;2023-05-09T06:35:24;152457.91;;;19.77;100.00
12358;BME280;6243;51.244;6.774;2023-05-09T06:37:51;152471.97;;;19.83;100.00
12358;BME280;6243;51.244;6.774;2023-05-09T06:40:17;152422.06;;;19.63;100.00
12358;BME280;6243;51.244;6.774;2023-05-09T06:42:42;152482.25;;;19.87;100.00
12358;BME280;6243;51.244;6.774;2023-05-09T06:45:09;152509.13;;;19.98;100.00
12358;BME280;6243;51.244;6.774;2023-05-09T06:47:35;152500.19;;;19.94;100.00
12358;BME280;6243;51.244;6.774;2023-05-09T06:50:00;152537.28;;;20.09;100.00
12358;BME280;6243;51.244;6.774;2023-05-09T06:52:26;152542.41;;;20.11;100.00
12358;BME280;6243;51.244;6.774;2023-05-09T06:54:52;152533.47;;;20.07;100.00
12358;BME280;6243;51.244;6.774;2023-05-09T06:57:18;152579.59;;;20.25;100.00
12358;BME280;6243;51.244;6.774;2023-05-09T06:59:44;152475.84;;;19.85;100.00
12358;BME280;6243;51.244;6.774;2023-05-09T07:02:09;152473.25;;;19.83;100.00
12358;BME280;6243;51.244;6.774;2023-05-09T07:04:35;152587.31;;;20.28;100.00
12358;BME280;6243;51.244;6.774;2023-05-09T07:07:00;152564.16;;;20.19;100.00
12358;BME280;6243;51.244;6.774;2023-05-09T07:09:26;152623.13;;;20.42;100.00
12358;BME280;6243;51.244;6.774;2023-05-09T07:11:53;152511.69;;;19.99;100.00
12358;BME280;6243;51.244;6.774;2023-05-09T07:14:18;152546.28;;;20.12;100.00
12358;BME280;6243;51.244;6.774;2023-05-09T07:16:44;152602.66;;;20.34;100.00
12358;BME280;6243;51.244;6.774;2023-05-09T07:19:09;152445.09;;;19.72;100.00
12358;BME280;6243;51.244;6.774;2023-05-09T07:21:35;152553.94;;;20.15;100.00
12358;BME280;6243;51.244;6.774;2023-05-09T07:24:00;152506.53;;;19.97;100.00
12358;BME280;6243;51.244;6.774;2023-05-09T07:26:26;152548.81;;;20.13;100.00
12358;BME280;6243;51.244;6.774;2023-05-09T07:28:53;152547.50;;;20.13;100.00
12358;BME280;6243;51.244;6.774;2023-05-09T07:31:19;152521.94;;;20.03;100.00
12358;BME280;6243;51.244;6.774;2023-05-09T07:33:44;152620.59;;;20.41;100.00
12358;BME280;6243;51.244;6.774;2023-05-09T07:36:10;152592.44;;;20.30;100.00
12358;BME280;6243;51.244;6.774;2023-05-09T07:38:36;152621.88;;;20.42;100.00
12358;BME280;6243;51.244;6.774;2023-05-09T07:41:02;152643.66;;;20.50;100.00
12358;BME280;6243;51.244;6.774;2023-05-09T07:43:28;152611.59;;;20.38;100.00
12358;BME280;6243;51.244;6.774;2023-05-09T07:45:55;152534.75;;;20.08;100.00
12358;BME280;6243;51.244;6.774;2023-05-09T07:48:20;152665.41;;;20.59;100.00
12358;BME280;6243;51.244;6.774;2023-05-09T07:50:46;152589.84;;;20.29;100.00
12358;BME280;6243;51.244;6.774;2023-05-09T07:53:12;152664.13;;;20.59;100.00
12358;BME280;6243;51.244;6.774;2023-05-09T07:55:38;152618.00;;;20.40;100.00
12358;BME280;6243;51.244;6.774;2023-05-09T07:58:03;152652.59;;;20.54;100.00
12358;BME280;6243;51.244;6.774;2023-05-09T08:00:29;152735.88;;;20.87;100.00
12358;BME280;6243;51.244;6.774;2023-05-09T08:02:56;152843.56;;;21.29;100.00
12358;BME280;6243;51.244;6.774;2023-05-09T08:05:21;152856.38;;;21.34;100.00
12358;BME280;6243;51.244;6.774;2023-05-09T08:07:47;152819.25;;;21.19;100.00
12358;BME280;6243;51.244;6.774;2023-05-09T08:10:13;152838.44;;;21.27;100.00
12358;BME280;6243;51.244;6.774;2023-05-09T08:12:38;152883.34;;;21.45;100.00
12358;BME280;6243;51.244;6.774;2023-05-09T08:15:05;152966.63;;;21.77;100.00
12358;BME280;6243;51.244;6.774;2023-05-09T08:17:31;152944.84;;;21.69;100.00
12358;BME280;6243;51.244;6.774;2023-05-09T08:19:58;152925.59;;;21.61;100.00
12358;BME280;6243;51.244;6.774;2023-05-09T08:22:24;152826.91;;;21.23;100.00
12358;BME280;6243;51.244;6.774;2023-05-09T08:24:49;152934.59;;;21.65;100.00
12358;BME280;6243;51.244;6.774;2023-05-09T08:27:15;153037.22;;;22.05;100.00
12358;BME280;6243;51.244;6.774;2023-05-09T08:29:41;153143.69;;;22.47;100.00
12358;BME280;6243;51.244;6.774;2023-05-09T08:32:07;153130.84;;;22.42;100.00
12358;BME280;6243;51.244;6.774;2023-05-09T08:34:33;153116.72;;;22.36;99.24
12358;BME280;6243;51.244;6.774;2023-05-09T08:37:00;153128.25;;;22.41;97.78
12358;BME280;6243;51.244;6.774;2023-05-09T08:39:26;153159.06;;;22.53;96.02
12358;BME280;6243;51.244;6.774;2023-05-09T08:41:52;153147.53;;;22.48;94.81
12358;BME280;6243;51.244;6.774;2023-05-09T08:44:21;153166.78;;;22.56;93.56
12358;BME280;6243;51.244;6.774;2023-05-09T08:46:48;153256.63;;;22.91;95.08
12358;BME280;6243;51.244;6.774;2023-05-09T08:49:16;153238.66;;;22.84;90.37
12358;BME280;6243;51.244;6.774;2023-05-09T08:51:43;153161.66;;;22.54;89.17
12358;BME280;6243;51.244;6.774;2023-05-09T08:54:12;153169.31;;;22.57;91.36
12358;BME280;6243;51.244;6.774;2023-05-09T08:56:39;153125.72;;;22.40;87.75
12358;BME280;6243;51.244;6.774;2023-05-09T08:59:05;153238.66;;;22.84;86.34
12358;BME280;6243;51.244;6.774;2023-05-09T09:01:32;153275.88;;;22.99;82.24
12358;BME280;6243;51.244;6.774;2023-05-09T09:03:58;153245.06;;;22.87;81.86
12358;BME280;6243;51.244;6.774;2023-05-09T09:06:26;153256.63;;;22.91;81.90
12358;BME280;6243;51.244;6.774;2023-05-09T09:08:54;153319.50;;;23.16;80.62
12358;BME280;6243;51.244;6.774;2023-05-09T09:11:21;153266.91;;;22.95;80.74
12358;BME280;6243;51.244;6.774;2023-05-09T09:13:49;153295.16;;;23.06;80.45
12358;BME280;6243;51.244;6.774;2023-05-09T09:16:20;153265.63;;;22.95;80.13
12358;BME280;6243;51.244;6.774;2023-05-09T09:18:46;153256.63;;;22.91;79.97
12358;BME280;6243;51.244;6.774;2023-05-09T09:21:14;153361.84;;;23.33;78.57
12358;BME280;6243;51.244;6.774;2023-05-09T09:23:42;153318.25;;;23.15;78.52
12358;BME280;6243;51.244;6.774;2023-05-09T09:26:08;153266.91;;;22.95;78.38
12358;BME280;6243;51.244;6.774;2023-05-09T09:28:35;153334.91;;;23.22;78.26
12358;BME280;6243;51.244;6.774;2023-05-09T09:31:00;153213.00;;;22.74;78.74
12358;BME280;6243;51.244;6.774;2023-05-09T09:33:28;153228.38;;;22.80;79.87
12358;BME280;6243;51.244;6.774;2023-05-09T09:35:55;153392.72;;;23.45;77.73
12358;BME280;6243;51.244;6.774;2023-05-09T09:38:22;153281.00;;;23.01;77.89
12358;BME280;6243;51.244;6.774;2023-05-09T09:40:51;153300.28;;;23.08;77.57
12358;BME280;6243;51.244;6.774;2023-05-09T09:43:17;153268.16;;;22.96;77.60
12358;BME280;6243;51.244;6.774;2023-05-09T09:45:47;153266.91;;;22.95;78.09
12358;BME280;6243;51.244;6.774;2023-05-09T09:48:13;153300.28;;;23.08;78.47
12358;BME280;6243;51.244;6.774;2023-05-09T09:50:39;153297.69;;;23.07;76.54
12358;BME280;6243;51.244;6.774;2023-05-09T09:53:04;153286.13;;;23.03;76.24
12358;BME280;6243;51.244;6.774;2023-05-09T09:55:30;153251.50;;;22.89;77.14
12358;BME280;6243;51.244;6.774;2023-05-09T09:57:56;153318.25;;;23.15;76.99
12358;BME280;6243;51.244;6.774;2023-05-09T10:00:24;153347.78;;;23.27;76.54
12358;BME280;6243;51.244;6.774;2023-05-09T10:02:52;153436.34;;;23.62;75.74
12358;BME280;6243;51.244;6.774;2023-05-09T10:05:19;153417.13;;;23.54;74.50
12358;BME280;6243;51.244;6.774;2023-05-09T10:07:49;153418.38;;;23.55;75.31
12358;BME280;6243;51.244;6.774;2023-05-09T10:10:14;153327.19;;;23.19;75.60
12358;BME280;6243;51.244;6.774;2023-05-09T10:12:42;153445.38;;;23.65;73.82
12358;BME280;6243;51.244;6.774;2023-05-09T10:15:09;153428.69;;;23.59;75.13
12358;BME280;6243;51.244;6.774;2023-05-09T10:17:36;153557.13;;;24.09;73.99
12358;BME280;6243;51.244;6.774;2023-05-09T10:20:06;153354.19;;;23.29;73.00
12358;BME280;6243;51.244;6.774;2023-05-09T10:22:33;153334.91;;;23.22;74.47
12358;BME280;6243;51.244;6.774;2023-05-09T10:25:01;153477.44;;;23.78;74.25
12358;BME280;6243;51.244;6.774;2023-05-09T10:27:30;153413.25;;;23.53;73.67
12358;BME280;6243;51.244;6.774;2023-05-09T10:30:05;153438.94;;;23.63;73.20
12358;BME280;6243;51.244;6.774;2023-05-09T10:32:42;153364.44;;;23.34;73.64
12358;BME280;6243;51.244;6.774;2023-05-09T10:37:51;153377.34;;;23.39;74.05
12358;BME280;6243;51.244;6.774;2023-05-09T10:40:20;153417.13;;;23.54;74.52
12358;BME280;6243;51.244;6.774;2023-05-09T10:42:45;153349.00;;;23.27;75.14
12358;BME280;6243;51.244;6.774;2023-05-09T10:45:12;153359.31;;;23.32;74.09
12358;BME280;6243;51.244;6.774;2023-05-09T10:47:38;153354.19;;;23.29;73.62
12358;BME280;6243;51.244;6.774;2023-05-09T10:50:11;153423.56;;;23.57;73.89
12358;BME280;6243;51.244;6.774;2023-05-09T10:53:04;153387.59;;;23.43;74.46
12358;BME280;6243;51.244;6.774;2023-05-09T10:55:35;153432.53;;;23.60;74.09
12358;BME280;6243;51.244;6.774;2023-05-09T10:58:16;153397.84;;;23.47;74.77
12358;BME280;6243;51.244;6.774;2023-05-09T11:03:53;153608.50;;;24.29;73.29
12358;BME280;6243;51.244;6.774;2023-05-09T11:06:42;153584.09;;;24.20;73.71
12358;BME280;6243;51.244;6.774;2023-05-09T11:09:24;153635.47;;;24.40;73.57
12358;BME280;6243;51.244;6.774;2023-05-09T11:11:51;153558.38;;;24.10;73.08
12358;BME280;6243;51.244;6.774;2023-05-09T11:14:28;153611.06;;;24.30;72.80
12358;BME280;6243;51.244;6.774;2023-05-09T11:20:42;153623.91;;;24.35;71.38
12358;BME280;6243;51.244;6.774;2023-05-09T11:23:10;153512.13;;;23.91;72.03
12358;BME280;6243;51.244;6.774;2023-05-09T11:25:38;153684.31;;;24.59;71.91
12358;BME280;6243;51.244;6.774;2023-05-09T11:28:04;153481.31;;;23.79;70.66
12358;BME280;6243;51.244;6.774;2023-05-09T11:30:38;153584.09;;;24.20;71.12
12358;BME280;6243;51.244;6.774;2023-05-09T11:33:04;153603.38;;;24.27;69.98
12358;BME280;6243;51.244;6.774;2023-05-09T11:35:29;153634.16;;;24.39;70.07
12358;BME280;6243;51.244;6.774;2023-05-09T11:37:59;153508.28;;;23.90;70.15
12358;BME280;6243;51.244;6.774;2023-05-09T11:40:27;153598.25;;;24.25;69.86
12358;BME280;6243;51.244;6.774;2023-05-09T11:42:55;153499.31;;;23.86;69.66
12358;BME280;6243;51.244;6.774;2023-05-09T11:45:21;153621.38;;;24.34;70.32
12358;BME280;6243;51.244;6.774;2023-05-09T11:47:48;153690.72;;;24.61;69.56
12358;BME280;6243;51.244;6.774;2023-05-09T11:50:15;153680.41;;;24.57;69.38
12358;BME280;6243;51.244;6.774;2023-05-09T11:52:41;153618.78;;;24.33;68.46
12358;BME280;6243;51.244;6.774;2023-05-09T11:55:08;153481.31;;;23.79;69.08
12358;BME280;6243;51.244;6.774;2023-05-09T11:57:38;153549.41;;;24.06;68.54
12358;BME280;6243;51.244;6.774;2023-05-09T12:00:05;153645.72;;;24.44;68.48
12358;BME280;6243;51.244;6.774;2023-05-09T12:02:31;153469.78;;;23.75;68.90
12358;BME280;6243;51.244;6.774;2023-05-09T12:05:06;153492.88;;;23.84;69.16
12358;BME280;6243;51.244;6.774;2023-05-09T12:07:31;153508.28;;;23.90;69.09
12358;BME280;6243;51.244;6.774;2023-05-09T12:09:57;153500.56;;;23.87;69.05
12358;BME280;6243;51.244;6.774;2023-05-09T12:12:23;153553.25;;;24.08;68.88
12358;BME280;6243;51.244;6.774;2023-05-09T12:14:50;153518.53;;;23.94;69.70
12358;BME280;6243;51.244;6.774;2023-05-09T12:17:16;153581.50;;;24.19;69.66
12358;BME280;6243;51.244;6.774;2023-05-09T12:19:43;153473.59;;;23.76;69.96
12358;BME280;6243;51.244;6.774;2023-05-09T12:22:08;153514.69;;;23.92;69.74
12358;BME280;6243;51.244;6.774;2023-05-09T12:24:34;153478.75;;;23.78;70.03
12358;BME280;6243;51.244;6.774;2023-05-09T12:27:00;153544.25;;;24.04;69.38
12358;BME280;6243;51.244;6.774;2023-05-09T12:29:26;153536.50;;;24.01;69.53
12358;BME280;6243;51.244;6.774;2023-05-09T12:31:54;153604.63;;;24.28;69.27
12358;BME280;6243;51.244;6.774;2023-05-09T12:34:20;153665.03;;;24.51;68.48
12358;BME280;6243;51.244;6.774;2023-05-09T12:36:46;153460.75;;;23.71;70.30
12358;BME280;6243;51.244;6.774;2023-05-09T12:39:11;153600.78;;;24.26;70.43
12358;BME280;6243;51.244;6.774;2023-05-09T12:41:42;153531.38;;;23.99;70.93
12358;BME280;6243;51.244;6.774;2023-05-09T12:44:08;153513.41;;;23.92;70.49
12358;BME280;6243;51.244;6.774;2023-05-09T12:46:33;153482.56;;;23.80;70.39
12358;BME280;6243;51.244;6.774;2023-05-09T12:49:01;153468.47;;;23.74;71.40
12358;BME280;6243;51.244;6.774;2023-05-09T12:51:26;153510.88;;;23.91;70.65
12358;BME280;6243;51.244;6.774;2023-05-09T12:53:52;153643.19;;;24.43;70.31
12358;BME280;6243;51.244;6.774;2023-05-09T12:56:18;153702.28;;;24.66;72.99
12358;BME280;6243;51.244;6.774;2023-05-09T12:58:47;153765.28;;;24.91;75.71
12358;BME280;6243;51.244;6.774;2023-05-09T13:01:14;153810.25;;;25.08;76.26